sensor_id;sensor_type;location;lat;lon;timestamp;P1;durP1;ratioP1;P2;durP2;ratioP2
18265;SDS011;9259;48.194;16.322;2023-05-07T00:00:25;0.87;;;0.77;;
18265;SDS011;9259;48.194;16.322;2023-05-07T00:02:53;1.23;;;0.73;;
18265;SDS011;9259;48.194;16.322;2023-05-07T00:05:20;2.20;;;1.00;;
18265;SDS011;9259;48.194;16.322;2023-05-07T00:07:47;2.23;;;0.83;;
18265;SDS011;9259;48.194;16.322;2023-05-07T00:10:15;2.07;;;1.00;;
18265;SDS011;9259;48.194;16.322;2023-05-07T00:12:44;2.70;;;0.90;;
18265;SDS011;9259;48.194;16.322;2023-05-07T00:15:12;3.07;;;1.00;;
18265;SDS011;9259;48.194;16.322;2023-05-07T00:17:39;2.43;;;1.40;;
18265;SDS011;9259;48.194;16.322;2023-05-07T00:20:07;1.70;;;1.00;;
18265;SDS011;9259;48.194;16.322;2023-05-07T00:22:35;2.13;;;1.40;;
18265;SDS011;9259;48.194;16.322;2023-05-07T00:25:03;2.77;;;1.33;;
18265;SDS011;9259;48.194;16.322;2023-05-07T00:27:31;3.10;;;1.50;;
18265;SDS011;9259;48.194;16.322;2023-05-07T00:30:00;3.37;;;1.40;;
18265;SDS011;9259;48.194;16.322;2023-05-07T00:32:28;2.10;;;1.07;;
18265;SDS011;9259;48.194;16.322;2023-05-07T00:34:55;2.70;;;1.50;;
18265;SDS011;9259;48.194;16.322;2023-05-07T00:37:22;3.80;;;1.63;;
18265;SDS011;9259;48.194;16.322;2023-05-07T00:39:50;3.97;;;1.70;;
18265;SDS011;9259;48.194;16.322;2023-05-07T00:42:17;2.97;;;1.40;;
18265;SDS011;9259;48.194;16.322;2023-05-07T00:44:45;2.77;;;1.50;;
18265;SDS011;9259;48.194;16.322;2023-05-07T00:47:14;2.50;;;1.60;;
18265;SDS011;9259;48.194;16.322;2023-05-07T00:49:42;3.17;;;1.50;;
18265;SDS011;9259;48.194;16.322;2023-05-07T00:52:11;1.97;;;1.23;;
18265;SDS011;9259;48.194;16.322;2023-05-07T00:54:40;2.20;;;0.97;;
18265;SDS011;9259;48.194;16.322;2023-05-07T00:57:09;2.27;;;1.17;;
18265;SDS011;9259;48.194;16.322;2023-05-07T00:59:37;4.60;;;0.90;;
18265;SDS011;9259;48.194;16.322;2023-05-07T01:02:06;1.87;;;1.00;;
18265;SDS011;9259;48.194;16.322;2023-05-07T01:04:35;2.17;;;0.83;;
18265;SDS011;9259;48.194;16.322;2023-05-07T01:07:02;1.60;;;1.00;;
18265;SDS011;9259;48.194;16.322;2023-05-07T01:09:31;2.70;;;1.00;;
18265;SDS011;9259;48.194;16.322;2023-05-07T01:12:00;1.27;;;0.90;;
18265;SDS011;9259;48.194;16.322;2023-05-07T01:14:28;2.90;;;1.00;;
18265;SDS011;9259;48.194;16.322;2023-05-07T01:16:56;2.03;;;1.10;;
18265;SDS011;9259;48.194;16.322;2023-05-07T01:19:24;1.30;;;0.70;;
18265;SDS011;9259;48.194;16.322;2023-05-07T01:21:54;1.70;;;0.80;;
18265;SDS011;9259;48.194;16.322;2023-05-07T01:24:30;2.67;;;1.00;;
18265;SDS011;9259;48.194;16.322;2023-05-07T01:26:58;1.77;;;0.80;;
18265;SDS011;9259;48.194;16.322;2023-05-07T01:29:27;1.73;;;1.00;;
18265;SDS011;9259;48.194;16.322;2023-05-07T01:31:55;1.77;;;1.00;;
18265;SDS011;9259;48.194;16.322;2023-05-07T01:34:25;1.77;;;1.10;;
18265;SDS011;9259;48.194;16.322;2023-05-07T01:36:56;1.70;;;0.80;;
18265;SDS011;9259;48.194;16.322;2023-05-07T01:39:26;3.83;;;0.90;;
18265;SDS011;9259;48.194;16.322;2023-05-07T01:41:56;0.90;;;0.70;;
18265;SDS011;9259;48.194;16.322;2023-05-07T01:44:25;1.70;;;0.80;;
18265;SDS011;9259;48.194;16.322;2023-05-07T01:46:53;1.50;;;1.00;;
18265;SDS011;9259;48.194;16.322;2023-05-07T01:49:21;1.70;;;0.93;;
18265;SDS011;9259;48.194;16.322;2023-05-07T01:51:49;2.03;;;1.00;;
18265;SDS011;9259;48.194;16.322;2023-05-07T01:54:16;2.20;;;1.00;;
18265;SDS011;9259;48.194;16.322;2023-05-07T01:56:44;1.20;;;0.63;;
18265;SDS011;9259;48.194;16.322;2023-05-07T01:59:14;1.20;;;0.83;;
18265;SDS011;9259;48.194;16.322;2023-05-07T02:01:42;2.70;;;1.00;;
18265;SDS011;9259;48.194;16.322;2023-05-07T02:04:09;2.20;;;1.07;;
18265;SDS011;9259;48.194;16.322;2023-05-07T02:06:37;1.77;;;0.90;;
18265;SDS011;9259;48.194;16.322;2023-05-07T02:09:04;1.30;;;0.70;;
18265;SDS011;9259;48.194;16.322;2023-05-07T02:11:32;1.73;;;1.00;;
18265;SDS011;9259;48.194;16.322;2023-05-07T02:13:59;1.27;;;0.90;;
18265;SDS011;9259;48.194;16.322;2023-05-07T02:16:28;2.80;;;1.10;;
18265;SDS011;9259;48.194;16.322;2023-05-07T02:18:55;2.50;;;1.00;;
18265;SDS011;9259;48.194;16.322;2023-05-07T02:21:23;1.73;;;1.10;;
18265;SDS011;9259;48.194;16.322;2023-05-07T02:23:51;2.33;;;1.10;;
18265;SDS011;9259;48.194;16.322;2023-05-07T02:26:18;2.60;;;1.30;;
18265;SDS011;9259;48.194;16.322;2023-05-07T02:28:47;1.37;;;1.00;;
18265;SDS011;9259;48.194;16.322;2023-05-07T02:31:14;1.93;;;1.10;;
18265;SDS011;9259;48.194;16.322;2023-05-07T02:33:43;1.57;;;0.87;;
18265;SDS011;9259;48.194;16.322;2023-05-07T02:36:11;1.97;;;1.23;;
18265;SDS011;9259;48.194;16.322;2023-05-07T02:38:39;2.73;;;1.30;;
18265;SDS011;9259;48.194;16.322;2023-05-07T02:41:06;1.70;;;1.03;;
18265;SDS011;9259;48.194;16.322;2023-05-07T02:43:33;2.73;;;1.33;;
18265;SDS011;9259;48.194;16.322;2023-05-07T02:46:01;2.87;;;1.60;;
18265;SDS011;9259;48.194;16.322;2023-05-07T02:48:29;3.37;;;1.40;;
18265;SDS011;9259;48.194;16.322;2023-05-07T02:50:58;2.57;;;1.50;;
18265;SDS011;9259;48.194;16.322;2023-05-07T02:53:26;2.67;;;1.20;;
18265;SDS011;9259;48.194;16.322;2023-05-07T02:55:55;2.27;;;1.40;;
18265;SDS011;9259;48.194;16.322;2023-05-07T02:58:23;3.00;;;1.60;;
18265;SDS011;9259;48.194;16.322;2023-05-07T03:00:51;3.17;;;1.70;;
18265;SDS011;9259;48.194;16.322;2023-05-07T03:03:20;6.57;;;2.03;;
18265;SDS011;9259;48.194;16.322;2023-05-07T03:05:47;5.30;;;2.03;;
18265;SDS011;9259;48.194;16.322;2023-05-07T03:08:16;4.37;;;2.20;;
18265;SDS011;9259;48.194;16.322;2023-05-07T03:10:44;3.10;;;1.93;;
18265;SDS011;9259;48.194;16.322;2023-05-07T03:13:11;3.97;;;2.17;;
18265;SDS011;9259;48.194;16.322;2023-05-07T03:15:39;4.97;;;2.20;;
18265;SDS011;9259;48.194;16.322;2023-05-07T03:18:06;3.93;;;2.33;;
18265;SDS011;9259;48.194;16.322;2023-05-07T03:20:34;3.67;;;2.20;;
18265;SDS011;9259;48.194;16.322;2023-05-07T03:23:01;5.00;;;2.77;;
18265;SDS011;9259;48.194;16.322;2023-05-07T03:25:31;3.60;;;2.20;;
18265;SDS011;9259;48.194;16.322;2023-05-07T03:27:59;7.87;;;2.80;;
18265;SDS011;9259;48.194;16.322;2023-05-07T03:30:26;6.13;;;2.90;;
18265;SDS011;9259;48.194;16.322;2023-05-07T03:32:54;6.37;;;2.93;;
18265;SDS011;9259;48.194;16.322;2023-05-07T03:35:21;5.57;;;2.97;;
18265;SDS011;9259;48.194;16.322;2023-05-07T03:37:48;6.53;;;3.17;;
18265;SDS011;9259;48.194;16.322;2023-05-07T03:40:16;6.43;;;3.13;;
18265;SDS011;9259;48.194;16.322;2023-05-07T03:42:45;8.87;;;3.97;;
18265;SDS011;9259;48.194;16.322;2023-05-07T03:45:12;7.07;;;3.27;;
18265;SDS011;9259;48.194;16.322;2023-05-07T03:47:40;8.50;;;3.60;;
18265;SDS011;9259;48.194;16.322;2023-05-07T03:50:07;6.10;;;3.27;;
18265;SDS011;9259;48.194;16.322;2023-05-07T03:52:36;9.10;;;3.50;;
18265;SDS011;9259;48.194;16.322;2023-05-07T03:55:03;7.43;;;3.43;;
18265;SDS011;9259;48.194;16.322;2023-05-07T03:57:31;10.60;;;4.00;;
18265;SDS011;9259;48.194;16.322;2023-05-07T04:00:00;11.27;;;3.67;;
18265;SDS011;9259;48.194;16.322;2023-05-07T04:02:29;8.00;;;3.93;;
18265;SDS011;9259;48.194;16.322;2023-05-07T04:04:56;8.00;;;3.90;;
18265;SDS011;9259;48.194;16.322;2023-05-07T04:07:24;7.83;;;3.90;;
18265;SDS011;9259;48.194;16.322;2023-05-07T04:09:51;7.27;;;3.53;;
18265;SDS011;9259;48.194;16.322;2023-05-07T04:12:19;7.60;;;3.83;;
18265;SDS011;9259;48.194;16.322;2023-05-07T04:14:46;9.17;;;4.03;;
18265;SDS011;9259;48.194;16.322;2023-05-07T04:17:15;10.20;;;4.37;;
18265;SDS011;9259;48.194;16.322;2023-05-07T04:19:42;7.90;;;4.17;;
18265;SDS011;9259;48.194;16.322;2023-05-07T04:22:10;8.40;;;3.80;;
18265;SDS011;9259;48.194;16.322;2023-05-07T04:24:38;12.67;;;4.57;;
18265;SDS011;9259;48.194;16.322;2023-05-07T04:27:05;13.37;;;4.47;;
18265;SDS011;9259;48.194;16.322;2023-05-07T04:29:33;9.40;;;4.50;;
18265;SDS011;9259;48.194;16.322;2023-05-07T04:32:00;10.33;;;4.70;;
18265;SDS011;9259;48.194;16.322;2023-05-07T04:34:29;11.80;;;4.17;;
18265;SDS011;9259;48.194;16.322;2023-05-07T04:36:58;9.37;;;4.77;;
18265;SDS011;9259;48.194;16.322;2023-05-07T04:39:26;12.27;;;4.67;;
18265;SDS011;9259;48.194;16.322;2023-05-07T04:41:53;9.57;;;4.80;;
18265;SDS011;9259;48.194;16.322;2023-05-07T04:44:21;12.77;;;5.30;;
18265;SDS011;9259;48.194;16.322;2023-05-07T04:46:48;8.90;;;4.13;;
18265;SDS011;9259;48.194;16.322;2023-05-07T04:49:16;13.70;;;4.67;;
18265;SDS011;9259;48.194;16.322;2023-05-07T04:51:45;9.83;;;4.80;;
18265;SDS011;9259;48.194;16.322;2023-05-07T04:54:12;10.97;;;4.57;;
18265;SDS011;9259;48.194;16.322;2023-05-07T04:56:39;12.00;;;4.97;;
18265;SDS011;9259;48.194;16.322;2023-05-07T04:59:07;10.23;;;4.57;;
18265;SDS011;9259;48.194;16.322;2023-05-07T05:01:34;9.20;;;4.53;;
18265;SDS011;9259;48.194;16.322;2023-05-07T05:04:02;13.53;;;4.83;;
18265;SDS011;9259;48.194;16.322;2023-05-07T05:06:29;8.27;;;4.50;;
18265;SDS011;9259;48.194;16.322;2023-05-07T05:08:58;10.00;;;4.67;;
18265;SDS011;9259;48.194;16.322;2023-05-07T05:11:25;11.93;;;4.77;;
18265;SDS011;9259;48.194;16.322;2023-05-07T05:13:53;15.67;;;5.47;;
18265;SDS011;9259;48.194;16.322;2023-05-07T05:16:20;12.40;;;5.47;;
18265;SDS011;9259;48.194;16.322;2023-05-07T05:18:48;19.73;;;7.27;;
18265;SDS011;9259;48.194;16.322;2023-05-07T05:21:17;20.20;;;8.30;;
18265;SDS011;9259;48.194;16.322;2023-05-07T05:23:44;16.83;;;7.53;;
18265;SDS011;9259;48.194;16.322;2023-05-07T05:26:13;20.30;;;8.83;;
18265;SDS011;9259;48.194;16.322;2023-05-07T05:28:40;15.02;;;7.35;;
18265;SDS011;9259;48.194;16.322;2023-05-07T05:31:08;18.95;;;8.48;;
18265;SDS011;9259;48.194;16.322;2023-05-07T05:33:35;19.88;;;8.40;;
18265;SDS011;9259;48.194;16.322;2023-05-07T05:36:03;16.73;;;7.82;;
18265;SDS011;9259;48.194;16.322;2023-05-07T05:38:31;21.52;;;8.50;;
18265;SDS011;9259;48.194;16.322;2023-05-07T05:40:58;22.45;;;8.68;;
18265;SDS011;9259;48.194;16.322;2023-05-07T05:43:27;19.00;;;8.48;;
18265;SDS011;9259;48.194;16.322;2023-05-07T05:45:55;19.10;;;7.72;;
18265;SDS011;9259;48.194;16.322;2023-05-07T05:48:22;19.15;;;8.43;;
18265;SDS011;9259;48.194;16.322;2023-05-07T05:50:50;17.05;;;8.85;;
18265;SDS011;9259;48.194;16.322;2023-05-07T05:53:17;20.67;;;8.98;;
18265;SDS011;9259;48.194;16.322;2023-05-07T05:55:44;18.95;;;8.57;;
18265;SDS011;9259;48.194;16.322;2023-05-07T05:58:12;19.23;;;9.00;;
18265;SDS011;9259;48.194;16.322;2023-05-07T06:00:42;19.58;;;8.50;;
18265;SDS011;9259;48.194;16.322;2023-05-07T06:03:11;18.88;;;8.73;;
18265;SDS011;9259;48.194;16.322;2023-05-07T06:05:38;18.42;;;9.80;;
18265;SDS011;9259;48.194;16.322;2023-05-07T06:08:06;18.30;;;7.75;;
18265;SDS011;9259;48.194;16.322;2023-05-07T06:10:33;22.30;;;9.10;;
18265;SDS011;9259;48.194;16.322;2023-05-07T06:13:02;19.40;;;8.93;;
18265;SDS011;9259;48.194;16.322;2023-05-07T06:15:29;16.92;;;7.63;;
18265;SDS011;9259;48.194;16.322;2023-05-07T06:17:58;15.85;;;8.07;;
18265;SDS011;9259;48.194;16.322;2023-05-07T06:20:26;17.52;;;7.65;;
18265;SDS011;9259;48.194;16.322;2023-05-07T06:22:53;16.58;;;7.70;;
18265;SDS011;9259;48.194;16.322;2023-05-07T06:25:21;16.30;;;8.13;;
18265;SDS011;9259;48.194;16.322;2023-05-07T06:27:48;16.27;;;7.85;;
18265;SDS011;9259;48.194;16.322;2023-05-07T06:30:15;16.67;;;8.02;;
18265;SDS011;9259;48.194;16.322;2023-05-07T06:32:43;14.82;;;7.15;;
18265;SDS011;9259;48.194;16.322;2023-05-07T06:35:11;15.75;;;7.50;;
18265;SDS011;9259;48.194;16.322;2023-05-07T06:37:40;16.63;;;7.63;;
18265;SDS011;9259;48.194;16.322;2023-05-07T06:40:08;14.40;;;7.45;;
18265;SDS011;9259;48.194;16.322;2023-05-07T06:42:36;17.73;;;7.35;;
18265;SDS011;9259;48.194;16.322;2023-05-07T06:45:04;15.35;;;7.18;;
18265;SDS011;9259;48.194;16.322;2023-05-07T06:47:33;14.57;;;7.40;;
18265;SDS011;9259;48.194;16.322;2023-05-07T06:50:00;16.95;;;7.10;;
18265;SDS011;9259;48.194;16.322;2023-05-07T06:52:29;15.10;;;7.63;;
18265;SDS011;9259;48.194;16.322;2023-05-07T06:54:56;13.75;;;7.10;;
18265;SDS011;9259;48.194;16.322;2023-05-07T06:57:23;15.80;;;7.78;;
18265;SDS011;9259;48.194;16.322;2023-05-07T06:59:51;13.82;;;6.72;;
18265;SDS011;9259;48.194;16.322;2023-05-07T07:02:18;17.98;;;7.57;;
18265;SDS011;9259;48.194;16.322;2023-05-07T07:04:46;16.23;;;7.75;;
18265;SDS011;9259;48.194;16.322;2023-05-07T07:07:13;16.25;;;8.10;;
18265;SDS011;9259;48.194;16.322;2023-05-07T07:09:42;14.80;;;7.07;;
18265;SDS011;9259;48.194;16.322;2023-05-07T07:12:09;20.20;;;7.53;;
18265;SDS011;9259;48.194;16.322;2023-05-07T07:14:37;15.20;;;7.28;;
18265;SDS011;9259;48.194;16.322;2023-05-07T07:17:04;18.17;;;8.18;;
18265;SDS011;9259;48.194;16.322;2023-05-07T07:19:32;16.73;;;7.72;;
18265;SDS011;9259;48.194;16.322;2023-05-07T07:21:59;17.67;;;7.10;;
18265;SDS011;9259;48.194;16.322;2023-05-07T07:24:27;18.98;;;8.30;;
18265;SDS011;9259;48.194;16.322;2023-05-07T07:26:55;19.27;;;8.57;;
18265;SDS011;9259;48.194;16.322;2023-05-07T07:29:23;17.15;;;7.72;;
18265;SDS011;9259;48.194;16.322;2023-05-07T07:31:52;16.10;;;8.15;;
18265;SDS011;9259;48.194;16.322;2023-05-07T07:34:19;15.20;;;7.50;;
18265;SDS011;9259;48.194;16.322;2023-05-07T07:36:47;11.50;;;6.55;;
18265;SDS011;9259;48.194;16.322;2023-05-07T07:39:14;15.80;;;6.60;;
18265;SDS011;9259;48.194;16.322;2023-05-07T07:41:41;13.93;;;6.57;;
18265;SDS011;9259;48.194;16.322;2023-05-07T07:44:10;13.48;;;7.18;;
18265;SDS011;9259;48.194;16.322;2023-05-07T07:46:38;13.52;;;6.45;;
18265;SDS011;9259;48.194;16.322;2023-05-07T07:49:06;17.17;;;6.43;;
18265;SDS011;9259;48.194;16.322;2023-05-07T07:51:33;12.35;;;6.82;;
18265;SDS011;9259;48.194;16.322;2023-05-07T07:54:00;14.70;;;7.13;;
18265;SDS011;9259;48.194;16.322;2023-05-07T07:56:29;14.00;;;6.05;;
18265;SDS011;9259;48.194;16.322;2023-05-07T07:58:56;13.48;;;6.13;;
18265;SDS011;9259;48.194;16.322;2023-05-07T08:01:25;14.30;;;6.25;;
18265;SDS011;9259;48.194;16.322;2023-05-07T08:03:53;14.80;;;6.90;;
18265;SDS011;9259;48.194;16.322;2023-05-07T08:06:20;14.82;;;6.53;;
18265;SDS011;9259;48.194;16.322;2023-05-07T08:08:48;13.48;;;6.60;;
18265;SDS011;9259;48.194;16.322;2023-05-07T08:11:15;12.48;;;6.72;;
18265;SDS011;9259;48.194;16.322;2023-05-07T08:13:43;13.85;;;6.07;;
18265;SDS011;9259;48.194;16.322;2023-05-07T08:16:10;14.13;;;6.57;;
18265;SDS011;9259;48.194;16.322;2023-05-07T08:18:39;14.43;;;6.70;;
18265;SDS011;9259;48.194;16.322;2023-05-07T08:21:07;13.88;;;6.43;;
18265;SDS011;9259;48.194;16.322;2023-05-07T08:23:34;16.08;;;6.97;;
18265;SDS011;9259;48.194;16.322;2023-05-07T08:26:02;13.25;;;6.18;;
18265;SDS011;9259;48.194;16.322;2023-05-07T08:28:29;15.18;;;5.97;;
18265;SDS011;9259;48.194;16.322;2023-05-07T08:30:57;13.02;;;6.75;;
18265;SDS011;9259;48.194;16.322;2023-05-07T08:33:31;15.95;;;6.40;;
18265;SDS011;9259;48.194;16.322;2023-05-07T08:35:59;14.82;;;6.70;;
18265;SDS011;9259;48.194;16.322;2023-05-07T08:38:27;14.70;;;6.75;;
18265;SDS011;9259;48.194;16.322;2023-05-07T08:40:54;12.13;;;6.55;;
18265;SDS011;9259;48.194;16.322;2023-05-07T08:43:22;13.98;;;6.53;;
18265;SDS011;9259;48.194;16.322;2023-05-07T08:45:54;13.60;;;6.22;;
18265;SDS011;9259;48.194;16.322;2023-05-07T08:48:22;14.80;;;6.38;;
18265;SDS011;9259;48.194;16.322;2023-05-07T08:50:53;12.55;;;6.10;;
18265;SDS011;9259;48.194;16.322;2023-05-07T08:53:21;12.43;;;5.65;;
18265;SDS011;9259;48.194;16.322;2023-05-07T08:55:49;11.82;;;5.45;;
18265;SDS011;9259;48.194;16.322;2023-05-07T08:58:17;10.85;;;5.47;;
18265;SDS011;9259;48.194;16.322;2023-05-07T09:00:44;9.88;;;4.60;;
18265;SDS011;9259;48.194;16.322;2023-05-07T09:03:12;10.73;;;4.95;;
18265;SDS011;9259;48.194;16.322;2023-05-07T09:05:40;11.73;;;5.68;;
18265;SDS011;9259;48.194;16.322;2023-05-07T09:08:09;13.75;;;5.72;;
18265;SDS011;9259;48.194;16.322;2023-05-07T09:10:38;10.20;;;5.10;;
18265;SDS011;9259;48.194;16.322;2023-05-07T09:13:05;10.13;;;5.50;;
18265;SDS011;9259;48.194;16.322;2023-05-07T09:15:33;13.25;;;5.65;;
18265;SDS011;9259;48.194;16.322;2023-05-07T09:18:00;14.18;;;6.55;;
18265;SDS011;9259;48.194;16.322;2023-05-07T09:20:29;13.25;;;6.60;;
18265;SDS011;9259;48.194;16.322;2023-05-07T09:22:57;12.30;;;6.03;;
18265;SDS011;9259;48.194;16.322;2023-05-07T09:25:28;14.88;;;7.28;;
18265;SDS011;9259;48.194;16.322;2023-05-07T09:27:58;14.68;;;6.65;;
18265;SDS011;9259;48.194;16.322;2023-05-07T09:30:27;14.38;;;6.07;;
18265;SDS011;9259;48.194;16.322;2023-05-07T09:32:56;10.88;;;5.60;;
18265;SDS011;9259;48.194;16.322;2023-05-07T09:35:24;10.48;;;5.28;;
18265;SDS011;9259;48.194;16.322;2023-05-07T09:37:52;10.90;;;5.80;;
18265;SDS011;9259;48.194;16.322;2023-05-07T09:40:21;11.20;;;6.10;;
18265;SDS011;9259;48.194;16.322;2023-05-07T09:42:49;12.10;;;5.95;;
18265;SDS011;9259;48.194;16.322;2023-05-07T09:45:22;11.80;;;5.85;;
18265;SDS011;9259;48.194;16.322;2023-05-07T09:47:53;12.55;;;5.50;;
18265;SDS011;9259;48.194;16.322;2023-05-07T09:50:23;11.57;;;5.88;;
18265;SDS011;9259;48.194;16.322;2023-05-07T09:52:54;11.77;;;5.65;;
18265;SDS011;9259;48.194;16.322;2023-05-07T09:55:22;10.98;;;5.10;;
18265;SDS011;9259;48.194;16.322;2023-05-07T09:57:50;11.20;;;5.00;;
18265;SDS011;9259;48.194;16.322;2023-05-07T10:00:18;8.73;;;4.45;;
18265;SDS011;9259;48.194;16.322;2023-05-07T10:02:49;10.38;;;4.60;;
18265;SDS011;9259;48.194;16.322;2023-05-07T10:05:19;7.97;;;3.65;;
18265;SDS011;9259;48.194;16.322;2023-05-07T10:07:46;8.88;;;4.25;;
18265;SDS011;9259;48.194;16.322;2023-05-07T10:10:14;8.80;;;4.63;;
18265;SDS011;9259;48.194;16.322;2023-05-07T10:12:42;7.78;;;4.47;;
18265;SDS011;9259;48.194;16.322;2023-05-07T10:15:10;9.05;;;4.05;;
18265;SDS011;9259;48.194;16.322;2023-05-07T10:17:40;9.77;;;4.43;;
18265;SDS011;9259;48.194;16.322;2023-05-07T10:20:09;11.02;;;5.03;;
18265;SDS011;9259;48.194;16.322;2023-05-07T10:22:37;8.10;;;3.83;;
18265;SDS011;9259;48.194;16.322;2023-05-07T10:25:09;9.93;;;4.90;;
18265;SDS011;9259;48.194;16.322;2023-05-07T10:27:43;7.60;;;4.55;;
18265;SDS011;9259;48.194;16.322;2023-05-07T10:30:13;9.45;;;4.40;;
18265;SDS011;9259;48.194;16.322;2023-05-07T10:32:49;9.02;;;4.97;;
18265;SDS011;9259;48.194;16.322;2023-05-07T10:35:22;9.60;;;4.53;;
18265;SDS011;9259;48.194;16.322;2023-05-07T10:37:53;8.15;;;4.53;;
18265;SDS011;9259;48.194;16.322;2023-05-07T10:40:21;7.25;;;4.05;;
18265;SDS011;9259;48.194;16.322;2023-05-07T10:42:55;7.50;;;4.30;;
18265;SDS011;9259;48.194;16.322;2023-05-07T10:45:23;9.85;;;4.53;;
18265;SDS011;9259;48.194;16.322;2023-05-07T10:48:05;8.93;;;4.88;;
18265;SDS011;9259;48.194;16.322;2023-05-07T10:50:39;8.88;;;4.70;;
18265;SDS011;9259;48.194;16.322;2023-05-07T10:53:22;8.32;;;4.80;;
18265;SDS011;9259;48.194;16.322;2023-05-07T10:58:59;8.65;;;4.95;;
18265;SDS011;9259;48.194;16.322;2023-05-07T11:02:07;9.20;;;5.15;;
18265;SDS011;9259;48.194;16.322;2023-05-07T11:04:36;9.73;;;5.25;;
18265;SDS011;9259;48.194;16.322;2023-05-07T11:10:04;7.88;;;4.32;;
18265;SDS011;9259;48.194;16.322;2023-05-07T11:12:54;8.82;;;5.05;;
18265;SDS011;9259;48.194;16.322;2023-05-07T11:15:38;9.82;;;4.57;;
18265;SDS011;9259;48.194;16.322;2023-05-07T11:18:08;9.45;;;4.72;;
18265;SDS011;9259;48.194;16.322;2023-05-07T11:20:46;6.88;;;3.92;;
18265;SDS011;9259;48.194;16.322;2023-05-07T11:26:26;7.30;;;3.90;;
18265;SDS011;9259;48.194;16.322;2023-05-07T11:28:55;8.38;;;3.78;;
18265;SDS011;9259;48.194;16.322;2023-05-07T11:31:26;10.25;;;5.07;;
18265;SDS011;9259;48.194;16.322;2023-05-07T11:33:55;8.07;;;4.53;;
18265;SDS011;9259;48.194;16.322;2023-05-07T11:36:23;8.90;;;4.15;;
18265;SDS011;9259;48.194;16.322;2023-05-07T11:38:51;6.80;;;3.92;;
18265;SDS011;9259;48.194;16.322;2023-05-07T11:41:20;7.35;;;4.28;;
18265;SDS011;9259;48.194;16.322;2023-05-07T11:43:57;6.68;;;4.38;;
18265;SDS011;9259;48.194;16.322;2023-05-07T11:46:26;7.25;;;3.80;;
18265;SDS011;9259;48.194;16.322;2023-05-07T11:48:55;6.97;;;3.78;;
18265;SDS011;9259;48.194;16.322;2023-05-07T11:51:23;6.55;;;3.85;;
18265;SDS011;9259;48.194;16.322;2023-05-07T11:53:52;7.28;;;4.07;;
18265;SDS011;9259;48.194;16.322;2023-05-07T11:56:21;8.57;;;4.20;;
18265;SDS011;9259;48.194;16.322;2023-05-07T11:58:49;7.65;;;3.95;;
18265;SDS011;9259;48.194;16.322;2023-05-07T12:01:17;5.68;;;3.45;;
18265;SDS011;9259;48.194;16.322;2023-05-07T12:03:45;7.30;;;3.88;;
18265;SDS011;9259;48.194;16.322;2023-05-07T12:06:13;7.47;;;3.95;;
18265;SDS011;9259;48.194;16.322;2023-05-07T12:08:42;9.02;;;3.95;;
18265;SDS011;9259;48.194;16.322;2023-05-07T12:11:13;7.82;;;4.00;;
18265;SDS011;9259;48.194;16.322;2023-05-07T12:13:44;8.93;;;4.18;;
18265;SDS011;9259;48.194;16.322;2023-05-07T12:16:11;6.88;;;3.60;;
18265;SDS011;9259;48.194;16.322;2023-05-07T12:18:39;6.30;;;3.75;;
18265;SDS011;9259;48.194;16.322;2023-05-07T12:21:07;7.30;;;3.75;;
18265;SDS011;9259;48.194;16.322;2023-05-07T12:23:35;6.88;;;3.50;;
18265;SDS011;9259;48.194;16.322;2023-05-07T12:26:03;6.78;;;3.70;;
18265;SDS011;9259;48.194;16.322;2023-05-07T12:28:31;6.90;;;3.55;;
18265;SDS011;9259;48.194;16.322;2023-05-07T12:31:05;6.18;;;3.63;;
18265;SDS011;9259;48.194;16.322;2023-05-07T12:33:34;6.55;;;3.97;;
18265;SDS011;9259;48.194;16.322;2023-05-07T12:36:05;8.98;;;3.90;;
18265;SDS011;9259;48.194;16.322;2023-05-07T12:38:34;5.47;;;3.67;;
18265;SDS011;9259;48.194;16.322;2023-05-07T12:41:04;6.20;;;3.45;;
18265;SDS011;9259;48.194;16.322;2023-05-07T12:43:32;7.97;;;3.83;;
18265;SDS011;9259;48.194;16.322;2023-05-07T12:46:00;6.68;;;3.25;;
18265;SDS011;9259;48.194;16.322;2023-05-07T12:48:31;8.93;;;4.25;;
18265;SDS011;9259;48.194;16.322;2023-05-07T12:50:59;6.03;;;3.80;;
18265;SDS011;9259;48.194;16.322;2023-05-07T12:53:27;8.95;;;4.63;;
18265;SDS011;9259;48.194;16.322;2023-05-07T12:55:58;6.65;;;3.60;;
18265;SDS011;9259;48.194;16.322;2023-05-07T12:58:26;6.75;;;3.60;;
18265;SDS011;9259;48.194;16.322;2023-05-07T13:00:55;8.43;;;4.50;;
18265;SDS011;9259;48.194;16.322;2023-05-07T13:03:25;6.30;;;3.75;;
18265;SDS011;9259;48.194;16.322;2023-05-07T13:05:56;5.65;;;3.60;;
18265;SDS011;9259;48.194;16.322;2023-05-07T13:08:26;6.55;;;3.35;;
18265;SDS011;9259;48.194;16.322;2023-05-07T13:10:55;5.22;;;3.10;;
18265;SDS011;9259;48.194;16.322;2023-05-07T13:13:23;5.05;;;2.88;;
18265;SDS011;9259;48.194;16.322;2023-05-07T13:15:50;5.47;;;3.00;;
18265;SDS011;9259;48.194;16.322;2023-05-07T13:18:18;5.60;;;3.00;;
18265;SDS011;9259;48.194;16.322;2023-05-07T13:20:45;5.72;;;3.28;;
18265;SDS011;9259;48.194;16.322;2023-05-07T13:23:14;6.03;;;3.53;;
18265;SDS011;9259;48.194;16.322;2023-05-07T13:25:41;6.65;;;3.10;;
18265;SDS011;9259;48.194;16.322;2023-05-07T13:28:09;5.68;;;3.10;;
18265;SDS011;9259;48.194;16.322;2023-05-07T13:30:36;6.35;;;2.75;;
18265;SDS011;9259;48.194;16.322;2023-05-07T13:33:04;6.60;;;2.90;;
18265;SDS011;9259;48.194;16.322;2023-05-07T13:35:31;5.30;;;2.90;;
18265;SDS011;9259;48.194;16.322;2023-05-07T13:37:59;6.10;;;3.05;;
18265;SDS011;9259;48.194;16.322;2023-05-07T13:40:27;5.50;;;2.80;;
18265;SDS011;9259;48.194;16.322;2023-05-07T13:42:56;3.97;;;2.47;;
18265;SDS011;9259;48.194;16.322;2023-05-07T13:45:26;7.18;;;3.05;;
18265;SDS011;9259;48.194;16.322;2023-05-07T13:47:55;5.55;;;2.90;;
18265;SDS011;9259;48.194;16.322;2023-05-07T13:50:23;5.40;;;3.20;;
18265;SDS011;9259;48.194;16.322;2023-05-07T13:52:52;4.95;;;2.90;;
18265;SDS011;9259;48.194;16.322;2023-05-07T13:55:20;4.80;;;2.85;;
18265;SDS011;9259;48.194;16.322;2023-05-07T13:57:55;3.83;;;2.22;;
18265;SDS011;9259;48.194;16.322;2023-05-07T14:00:23;5.28;;;2.78;;
18265;SDS011;9259;48.194;16.322;2023-05-07T14:02:51;3.60;;;2.00;;
18265;SDS011;9259;48.194;16.322;2023-05-07T14:05:18;3.35;;;2.28;;
18265;SDS011;9259;48.194;16.322;2023-05-07T14:07:46;5.25;;;2.35;;
18265;SDS011;9259;48.194;16.322;2023-05-07T14:10:14;4.00;;;2.45;;
18265;SDS011;9259;48.194;16.322;2023-05-07T14:12:43;3.83;;;2.35;;
18265;SDS011;9259;48.194;16.322;2023-05-07T14:15:12;3.38;;;2.10;;
18265;SDS011;9259;48.194;16.322;2023-05-07T14:17:40;4.75;;;2.58;;
18265;SDS011;9259;48.194;16.322;2023-05-07T14:20:08;3.60;;;2.35;;
18265;SDS011;9259;48.194;16.322;2023-05-07T14:22:36;5.22;;;2.63;;
18265;SDS011;9259;48.194;16.322;2023-05-07T14:25:04;4.07;;;2.40;;
18265;SDS011;9259;48.194;16.322;2023-05-07T14:27:32;5.05;;;2.80;;
18265;SDS011;9259;48.194;16.322;2023-05-07T14:30:00;4.57;;;2.88;;
18265;SDS011;9259;48.194;16.322;2023-05-07T14:32:29;6.32;;;2.90;;
18265;SDS011;9259;48.194;16.322;2023-05-07T14:34:56;7.68;;;2.70;;
18265;SDS011;9259;48.194;16.322;2023-05-07T14:37:23;3.92;;;2.67;;
18265;SDS011;9259;48.194;16.322;2023-05-07T14:39:51;5.85;;;3.22;;
18265;SDS011;9259;48.194;16.322;2023-05-07T14:42:18;7.53;;;2.72;;
18265;SDS011;9259;48.194;16.322;2023-05-07T14:44:46;4.85;;;2.45;;
18265;SDS011;9259;48.194;16.322;2023-05-07T14:47:13;4.80;;;2.47;;
18265;SDS011;9259;48.194;16.322;2023-05-07T14:49:42;3.40;;;2.03;;
18265;SDS011;9259;48.194;16.322;2023-05-07T14:52:10;3.95;;;2.50;;
18265;SDS011;9259;48.194;16.322;2023-05-07T14:54:37;4.60;;;2.25;;
18265;SDS011;9259;48.194;16.322;2023-05-07T14:57:05;4.70;;;2.78;;
18265;SDS011;9259;48.194;16.322;2023-05-07T14:59:33;4.72;;;2.13;;